createdAt,value
2019-02-21T00:01:50.655Z,10.78
2019-02-21T00:04:18.877Z,13.68
2019-02-21T00:06:47.084Z,16.48
2019-02-21T00:09:15.292Z,12.33
2019-02-21T00:11:43.490Z,14.63
2019-02-21T00:14:11.701Z,15.15
2019-02-21T00:16:39.921Z,15.08
2019-02-21T00:19:08.132Z,15.15
2019-02-21T00:21:36.330Z,10.88
2019-02-21T00:24:04.555Z,9.60
2019-02-21T00:26:32.799Z,12.37
2019-02-21T00:29:00.991Z,16.15
2019-02-21T00:31:29.181Z,16.15
2019-02-21T00:33:57.418Z,16.07
2019-02-21T00:36:25.616Z,15.03
2019-02-21T00:38:53.833Z,9.90
2019-02-21T00:41:22.031Z,17.32
2019-02-21T00:43:50.248Z,11.30
2019-02-21T00:46:18.450Z,13.68
2019-02-21T00:48:46.660Z,14.28
2019-02-21T00:51:14.857Z,14.65
2019-02-21T00:53:43.070Z,14.68
2019-02-21T00:56:11.266Z,11.53
2019-02-21T00:58:39.484Z,12.75
2019-02-21T01:01:07.682Z,11.70
2019-02-21T01:03:35.888Z,10.60
2019-02-21T01:06:04.088Z,13.28
2019-02-21T01:08:32.296Z,11.97
2019-02-21T01:11:00.496Z,14.28
2019-02-21T01:13:29.095Z,12.15
2019-02-21T01:15:57.310Z,13.22
2019-02-21T01:18:25.527Z,16.00
2019-02-21T01:20:53.754Z,11.45
2019-02-21T01:23:21.952Z,13.35
2019-02-21T01:25:50.163Z,11.30
2019-02-21T01:28:18.366Z,12.23
2019-02-21T01:30:56.407Z,12.90
2019-02-21T01:33:16.516Z,15.43
2019-02-21T01:35:44.740Z,16.10
2019-02-21T01:38:12.948Z,12.70
2019-02-21T01:40:41.155Z,13.55
2019-02-21T01:43:09.354Z,13.00
2019-02-21T01:45:37.562Z,12.00
2019-02-21T01:48:05.762Z,15.90
2019-02-21T01:50:33.972Z,17.95
2019-02-21T01:53:02.165Z,11.57
2019-02-21T01:55:30.373Z,10.23
2019-02-21T01:57:58.572Z,11.68
2019-02-21T02:00:26.788Z,11.35
2019-02-21T02:02:54.990Z,14.85
2019-02-21T02:05:23.194Z,9.55
2019-02-21T02:07:51.416Z,15.43
2019-02-21T02:10:19.623Z,12.23
2019-02-21T02:12:47.824Z,14.90
2019-02-21T02:15:16.025Z,16.57
2019-02-21T02:17:44.230Z,14.15
2019-02-21T02:20:12.444Z,12.15
2019-02-21T02:22:40.643Z,11.93
2019-02-21T02:25:08.851Z,11.88
2019-02-21T02:27:37.051Z,14.35
2019-02-21T02:30:06.900Z,14.60
2019-02-21T02:32:35.086Z,9.75
2019-02-21T02:35:03.470Z,12.00
2019-02-21T02:37:31.676Z,14.43
2019-02-21T02:39:59.895Z,14.15
2019-02-21T02:42:28.111Z,16.65
2019-02-21T02:44:56.329Z,15.90
2019-02-21T02:47:24.532Z,19.10
2019-02-21T02:49:52.755Z,16.82
2019-02-21T02:52:20.963Z,16.12
2019-02-21T02:54:49.180Z,15.18
2019-02-21T02:57:17.369Z,13.22
2019-02-21T02:59:45.566Z,13.95
2019-02-21T03:02:13.776Z,14.53
2019-02-21T03:04:42.043Z,14.18
2019-02-21T03:07:10.250Z,17.55
2019-02-21T03:09:38.451Z,14.70
2019-02-21T03:12:06.656Z,16.82
2019-02-21T03:14:34.844Z,18.77
2019-02-21T03:17:03.056Z,20.75
2019-02-21T03:19:31.258Z,15.18
2019-02-21T03:21:59.458Z,13.48
2019-02-21T03:24:27.713Z,15.48
2019-02-21T03:26:55.862Z,14.13
2019-02-21T03:29:24.089Z,15.72
2019-02-21T03:31:55.023Z,16.35
2019-02-21T03:34:22.282Z,14.25
2019-02-21T03:36:50.455Z,17.02
2019-02-21T03:39:18.651Z,17.17
2019-02-21T03:41:46.869Z,21.30
2019-02-21T03:44:15.066Z,15.05
2019-02-21T03:46:43.275Z,15.28
2019-02-21T03:49:11.472Z,15.65
2019-02-21T03:51:39.682Z,20.05
2019-02-21T03:54:07.876Z,14.83
2019-02-21T03:56:36.106Z,16.62
2019-02-21T03:59:04.322Z,17.07
2019-02-21T04:01:32.537Z,19.40
2019-02-21T04:04:00.737Z,19.42
2019-02-21T04:06:28.939Z,14.85
2019-02-21T04:08:57.132Z,12.15
2019-02-21T04:11:25.359Z,18.48
2019-02-21T04:13:53.558Z,17.32
2019-02-21T04:16:21.768Z,15.05
2019-02-21T04:18:49.962Z,13.68
2019-02-21T04:21:18.215Z,16.00
2019-02-21T04:23:46.414Z,12.68
2019-02-21T04:26:14.628Z,16.05
2019-02-21T04:28:45.591Z,22.85
2019-02-21T04:31:12.761Z,15.18
2019-02-21T04:33:40.979Z,16.93
2019-02-21T04:36:09.195Z,14.63
2019-02-21T04:38:37.394Z,11.73
2019-02-21T04:41:05.592Z,15.30
2019-02-21T04:43:33.803Z,12.60
2019-02-21T04:46:01.995Z,13.95
2019-02-21T04:48:30.202Z,15.20
2019-02-21T04:50:58.408Z,15.55
2019-02-21T04:53:26.651Z,14.60
2019-02-21T04:55:54.843Z,15.32
2019-02-21T04:58:23.071Z,16.67
2019-02-21T05:00:51.285Z,12.60
2019-02-21T05:03:19.509Z,14.85
2019-02-21T05:05:47.717Z,19.30
2019-02-21T05:08:15.925Z,21.33
2019-02-21T05:10:44.123Z,20.10
2019-02-21T05:13:12.347Z,16.17
2019-02-21T05:15:40.566Z,13.93
2019-02-21T05:18:08.749Z,16.40
2019-02-21T05:20:36.941Z,19.25
2019-02-21T05:23:05.146Z,16.30
2019-02-21T05:25:33.341Z,18.02
2019-02-21T05:28:03.181Z,16.62
2019-02-21T05:30:31.387Z,12.90
2019-02-21T05:33:03.881Z,15.53
2019-02-21T05:35:36.168Z,16.65
2019-02-21T05:38:12.259Z,19.80
2019-02-21T05:40:42.206Z,19.12
2019-02-21T05:43:14.988Z,18.45
2019-02-21T05:45:46.821Z,12.37
2019-02-21T05:48:28.445Z,14.38
2019-02-21T05:50:58.318Z,16.37
2019-02-21T05:53:34.387Z,12.25
2019-02-21T05:56:16.285Z,14.87
2019-02-21T05:58:49.051Z,17.50
2019-02-21T06:01:31.084Z,18.07
2019-02-21T06:04:03.368Z,15.18
2019-02-21T06:06:35.928Z,11.35
2019-02-21T06:09:09.216Z,19.00
2019-02-21T06:11:55.544Z,16.55
2019-02-21T06:14:25.404Z,20.23
2019-02-21T06:16:58.160Z,14.25
2019-02-21T06:19:33.865Z,16.10
2019-02-21T06:22:10.563Z,15.58
2019-02-21T06:24:46.881Z,17.45
2019-02-21T06:27:22.536Z,17.48
2019-02-21T06:29:54.802Z,16.05
2019-02-21T06:32:23.033Z,15.40
2019-02-21T06:34:52.391Z,14.15
2019-02-21T06:37:20.712Z,14.43
2019-02-21T06:39:48.937Z,17.77
2019-02-21T06:42:17.128Z,18.62
2019-02-21T06:44:45.334Z,18.85
2019-02-21T06:47:13.521Z,15.88
2019-02-21T06:49:41.725Z,15.30
2019-02-21T06:52:09.933Z,13.85
2019-02-21T06:54:38.150Z,15.40
2019-02-21T06:57:06.352Z,12.03
2019-02-21T06:59:42.204Z,13.80
2019-02-21T07:02:04.514Z,12.30
2019-02-21T07:04:33.454Z,24.67
2019-02-21T07:07:01.703Z,17.27
2019-02-21T07:09:29.915Z,13.13
2019-02-21T07:11:58.103Z,17.07
2019-02-21T07:14:26.302Z,17.70
2019-02-21T07:16:54.509Z,16.42
2019-02-21T07:19:22.718Z,15.88
2019-02-21T07:21:50.924Z,15.55
2019-02-21T07:24:19.135Z,18.35
2019-02-21T07:26:47.366Z,17.65
2019-02-21T07:29:15.550Z,14.15
2019-02-21T07:31:43.751Z,18.42
2019-02-21T07:34:11.951Z,14.75
2019-02-21T07:36:40.162Z,22.73
2019-02-21T07:39:16.956Z,18.80
2019-02-21T07:41:38.311Z,20.25
2019-02-21T07:44:12.160Z,15.70
2019-02-21T07:46:36.451Z,18.07
2019-02-21T07:49:04.672Z,22.15
2019-02-21T07:51:32.894Z,15.80
2019-02-21T07:54:01.117Z,15.90
2019-02-21T07:56:29.332Z,17.92
2019-02-21T07:58:57.721Z,16.82
2019-02-21T08:01:26.027Z,23.75
2019-02-21T08:03:54.230Z,15.85
2019-02-21T08:06:22.447Z,16.00
2019-02-21T08:08:50.661Z,15.98
2019-02-21T08:11:18.866Z,17.55
2019-02-21T08:13:47.072Z,17.85
2019-02-21T08:16:15.281Z,19.67
2019-02-21T08:18:43.476Z,13.25
2019-02-21T08:21:11.682Z,18.27
2019-02-21T08:23:50.147Z,16.60
2019-02-21T08:26:09.839Z,15.93
2019-02-21T08:28:38.065Z,15.90
2019-02-21T08:31:06.280Z,14.10
2019-02-21T08:33:36.128Z,15.15
2019-02-21T08:36:04.340Z,14.85
2019-02-21T08:38:32.543Z,20.30
2019-02-21T08:41:00.749Z,13.75
2019-02-21T08:50:22.413Z,15.23
2019-02-21T08:52:50.793Z,17.15
2019-02-21T08:55:18.982Z,12.03
2019-02-21T08:57:47.198Z,15.90
2019-02-21T09:00:16.340Z,13.60
2019-02-21T09:02:44.556Z,17.87
2019-02-21T09:05:13.391Z,20.32
2019-02-21T09:07:41.609Z,15.53
2019-02-21T09:10:11.474Z,15.53
2019-02-21T09:12:39.720Z,18.95
2019-02-21T09:15:11.228Z,13.32
2019-02-21T09:17:39.468Z,15.75
2019-02-21T09:22:43.345Z,19.87
2019-02-21T09:28:12.424Z,14.30
2019-02-21T09:30:40.595Z,20.70
2019-02-21T09:33:17.080Z,18.85
2019-02-21T09:35:38.730Z,18.65
2019-02-21T09:38:06.966Z,20.40
2019-02-21T09:40:35.211Z,19.52
2019-02-21T09:43:22.779Z,20.15
2019-02-21T09:45:50.978Z,18.77
2019-02-21T09:48:19.192Z,24.15
2019-02-21T09:50:47.391Z,20.48
2019-02-21T09:53:15.632Z,24.98
2019-02-21T09:55:43.814Z,16.17
2019-02-21T09:58:12.028Z,20.12
2019-02-21T10:00:40.231Z,20.48
2019-02-21T10:03:08.463Z,17.65
2019-02-21T10:05:56.022Z,18.92
2019-02-21T10:08:24.229Z,21.30
2019-02-21T10:10:52.430Z,19.27
2019-02-21T10:13:20.664Z,22.62
2019-02-21T10:15:48.885Z,23.95
2019-02-21T10:18:17.088Z,15.65
2019-02-21T10:20:45.293Z,15.98
2019-02-21T10:23:13.488Z,22.95
2019-02-21T10:25:41.700Z,18.82
2019-02-21T10:28:09.898Z,19.35
2019-02-21T10:30:38.124Z,21.12
2019-02-21T10:33:06.320Z,21.20
2019-02-21T10:35:34.622Z,21.27
2019-02-21T10:38:02.813Z,16.30
2019-02-21T10:40:33.336Z,21.73
2019-02-21T10:43:00.956Z,22.20
2019-02-21T10:45:29.191Z,20.40
2019-02-21T10:47:57.384Z,20.32
2019-02-21T10:50:25.605Z,18.80
2019-02-21T10:52:53.801Z,18.23
2019-02-21T10:55:22.683Z,18.02
2019-02-21T10:57:50.881Z,21.48
2019-02-21T11:00:28.655Z,18.77
2019-02-21T11:02:56.842Z,19.15
2019-02-21T11:05:25.079Z,19.32
2019-02-21T11:07:53.278Z,14.53
2019-02-21T11:10:28.871Z,22.58
2019-02-21T11:12:57.061Z,18.75
2019-02-21T11:15:25.765Z,20.15
2019-02-21T11:17:53.982Z,16.85
2019-02-21T11:20:22.714Z,16.23
2019-02-21T11:22:51.374Z,16.67
2019-02-21T11:25:19.601Z,22.20
2019-02-21T11:27:47.803Z,17.27
2019-02-21T11:30:19.965Z,20.25
2019-02-21T11:32:48.172Z,21.27
2019-02-21T11:35:16.378Z,19.25
2019-02-21T11:37:47.126Z,20.50
2019-02-21T11:40:15.862Z,20.95
2019-02-21T11:42:44.506Z,15.28
2019-02-21T11:45:15.414Z,23.40
2019-02-21T11:47:43.612Z,20.35
2019-02-21T11:50:13.774Z,18.32
2019-02-21T11:52:41.968Z,26.48
2019-02-21T11:55:18.192Z,18.95
2019-02-21T11:57:46.415Z,16.35
2019-02-21T12:00:17.424Z,19.87
2019-02-21T12:02:45.623Z,19.90
2019-02-21T12:05:17.469Z,22.70
2019-02-21T12:07:43.778Z,18.55
2019-02-21T12:10:12.523Z,16.42
2019-02-21T12:12:40.728Z,19.87
2019-02-21T12:15:11.428Z,22.40
2019-02-21T12:17:42.312Z,16.60
2019-02-21T12:20:14.949Z,16.02
2019-02-21T12:22:43.161Z,19.45
2019-02-21T12:25:13.695Z,20.88
2019-02-21T12:27:41.909Z,17.42
2019-02-21T12:30:12.542Z,17.12
2019-02-21T12:32:40.768Z,22.65
2019-02-21T12:35:08.967Z,24.92
2019-02-21T12:37:37.185Z,22.13
2019-02-21T12:40:11.404Z,20.65
2019-02-21T12:42:39.610Z,19.15
2019-02-21T12:45:10.952Z,18.55
2019-02-21T12:47:49.630Z,19.30
2019-02-21T12:50:10.748Z,19.82
2019-02-21T12:52:38.962Z,20.80
2019-02-21T12:55:09.106Z,19.20
2019-02-21T12:57:37.313Z,18.80
2019-02-21T13:00:08.835Z,22.40
2019-02-21T13:02:37.049Z,21.55
2019-02-21T13:05:06.107Z,23.52
2019-02-21T13:07:34.332Z,18.70
2019-02-21T13:10:02.530Z,23.15
2019-02-21T13:12:30.737Z,22.10
2019-02-21T13:14:58.934Z,22.35
2019-02-21T13:17:27.147Z,20.35
2019-02-21T13:19:55.339Z,20.57
2019-02-21T13:22:23.553Z,20.10
2019-02-21T13:24:51.770Z,22.98
2019-02-21T13:27:19.992Z,18.82
2019-02-21T13:29:48.223Z,24.92
2019-02-21T13:32:16.447Z,19.35
2019-02-21T13:34:44.661Z,19.37
2019-02-21T13:37:12.865Z,17.20
2019-02-21T13:39:41.067Z,21.55
2019-02-21T13:42:09.266Z,16.23
2019-02-21T13:44:37.484Z,20.23
2019-02-21T13:47:05.689Z,23.12
2019-02-21T13:49:33.898Z,19.15
2019-02-21T13:52:02.114Z,20.65
2019-02-21T13:54:30.321Z,21.57
2019-02-21T13:56:58.541Z,19.90
2019-02-21T13:59:26.750Z,18.05
2019-02-21T14:01:54.953Z,16.73
2019-02-21T14:04:23.187Z,17.35
2019-02-21T14:06:51.377Z,15.90
2019-02-21T14:09:19.594Z,22.52
2019-02-21T14:11:47.821Z,17.40
2019-02-21T14:14:16.033Z,14.38
2019-02-21T14:16:46.871Z,24.12
2019-02-21T14:19:14.161Z,22.42
2019-02-21T14:21:43.763Z,19.35
2019-02-21T14:24:12.078Z,16.80
2019-02-21T14:26:40.287Z,21.62
2019-02-21T14:29:08.490Z,22.20
2019-02-21T14:31:36.702Z,23.45
2019-02-21T14:34:04.907Z,21.85
2019-02-21T14:36:33.113Z,14.20
2019-02-21T14:39:01.318Z,17.15
2019-02-21T14:41:29.511Z,20.00
2019-02-21T14:44:00.325Z,19.23
2019-02-21T14:46:27.713Z,20.12
2019-02-21T14:48:55.912Z,16.85
2019-02-21T14:51:24.136Z,19.70
2019-02-21T14:53:52.383Z,21.77
2019-02-21T14:56:20.608Z,21.77
2019-02-21T14:58:48.806Z,21.62
2019-02-21T15:01:17.011Z,22.30
2019-02-21T15:03:45.210Z,25.62
2019-02-21T15:06:13.428Z,22.52
2019-02-21T15:08:41.625Z,39.13
2019-02-21T15:11:09.832Z,49.53
2019-02-21T15:13:38.028Z,42.75
2019-02-21T15:16:06.239Z,31.02
2019-02-21T15:18:34.466Z,39.10
2019-02-21T15:21:02.676Z,37.85
2019-02-21T15:23:30.893Z,34.60
2019-02-21T15:25:59.116Z,25.62
2019-02-21T15:28:27.318Z,24.82
2019-02-21T15:30:55.529Z,21.37
2019-02-21T15:33:23.741Z,19.20
2019-02-21T15:35:51.958Z,16.27
2019-02-21T15:38:20.426Z,16.85
2019-02-21T15:40:48.675Z,20.88
2019-02-21T15:43:16.877Z,15.93
2019-02-21T15:45:45.071Z,15.10
2019-02-21T15:48:13.281Z,13.68
2019-02-21T15:50:41.481Z,15.18
2019-02-21T15:53:09.694Z,17.15
2019-02-21T15:55:37.898Z,14.90
2019-02-21T15:58:06.113Z,15.48
2019-02-21T16:00:34.312Z,11.40
2019-02-21T16:03:02.530Z,14.58
2019-02-21T16:05:30.738Z,15.48
2019-02-21T16:07:58.943Z,17.12
2019-02-21T16:10:28.082Z,11.38
2019-02-21T16:12:56.912Z,18.90
2019-02-21T16:15:25.476Z,11.85
2019-02-21T16:17:53.696Z,12.75
2019-02-21T16:20:21.891Z,16.10
2019-02-21T16:22:50.130Z,13.55
2019-02-21T16:25:23.517Z,13.55
2019-02-21T16:27:51.776Z,13.15
2019-02-21T16:30:21.985Z,13.15
2019-02-21T16:32:49.877Z,16.65
2019-02-21T16:35:18.071Z,15.55
2019-02-21T16:37:46.294Z,13.45
2019-02-21T16:40:16.152Z,11.60
2019-02-21T16:42:44.368Z,16.73
2019-02-21T16:45:14.603Z,11.70
2019-02-21T16:47:42.828Z,11.68
2019-02-21T16:50:13.102Z,15.68
2019-02-21T16:52:41.306Z,10.23
2019-02-21T16:55:23.065Z,10.50
2019-02-21T16:57:51.270Z,11.03
2019-02-21T17:00:23.241Z,7.35
2019-02-21T17:02:51.507Z,8.25
2019-02-21T17:05:19.660Z,10.25
2019-02-21T17:07:47.875Z,5.87
2019-02-21T17:10:16.604Z,6.60
2019-02-21T17:12:44.819Z,8.50
2019-02-21T17:15:15.314Z,7.55
2019-02-21T17:17:43.533Z,8.15
2019-02-21T17:20:25.248Z,9.45
2019-02-21T17:22:53.461Z,8.35
2019-02-21T17:25:21.658Z,6.95
2019-02-21T17:27:50.540Z,6.62
2019-02-21T17:30:19.270Z,3.90
2019-02-21T17:32:47.491Z,5.67
2019-02-21T17:35:15.689Z,5.05
2019-02-21T17:37:43.896Z,10.40
2019-02-21T17:40:25.830Z,6.30
2019-02-21T17:42:54.020Z,5.17
2019-02-21T17:45:22.312Z,11.35
2019-02-21T17:47:50.499Z,8.65
2019-02-21T17:50:19.460Z,8.50
2019-02-21T17:52:47.660Z,9.55
2019-02-21T17:55:16.402Z,7.33
2019-02-21T17:57:44.611Z,9.00
2019-02-21T18:00:17.243Z,11.53
2019-02-21T18:02:45.133Z,8.73
2019-02-21T18:05:13.379Z,9.33
2019-02-21T18:07:41.523Z,9.98
2019-02-21T18:10:14.566Z,8.93
2019-02-21T18:12:42.772Z,10.05
2019-02-21T18:15:13.239Z,12.85
2019-02-21T18:17:41.452Z,9.73
2019-02-21T18:20:11.712Z,12.18
2019-02-21T18:22:39.901Z,9.43
2019-02-21T18:25:19.996Z,12.85
2019-02-21T18:27:48.202Z,6.62
2019-02-21T18:30:17.296Z,14.00
2019-02-21T18:32:45.503Z,10.23
2019-02-21T18:35:13.717Z,15.68
2019-02-21T18:37:47.584Z,10.50
2019-02-21T18:40:23.056Z,9.78
2019-02-21T18:42:51.275Z,10.85
2019-02-21T18:45:19.484Z,9.20
2019-02-21T18:47:47.680Z,8.55
2019-02-21T18:50:15.899Z,10.30
2019-02-21T18:52:44.136Z,10.13
2019-02-21T18:55:12.355Z,8.33
2019-02-21T18:57:40.555Z,10.23
2019-02-21T19:00:20.030Z,7.30
2019-02-21T19:02:48.202Z,8.90
2019-02-21T19:05:16.409Z,8.48
2019-02-21T19:07:44.625Z,11.80
2019-02-21T19:10:15.530Z,8.75
2019-02-21T19:12:43.731Z,10.80
2019-02-21T19:15:12.115Z,10.15
2019-02-21T19:17:40.314Z,11.22
2019-02-21T19:20:11.150Z,8.98
2019-02-21T19:22:39.395Z,12.90
2019-02-21T19:25:09.646Z,10.82
2019-02-21T19:27:37.873Z,11.05
2019-02-21T19:30:12.205Z,13.38
2019-02-21T19:32:40.409Z,10.65
2019-02-21T19:35:09.094Z,10.98
2019-02-21T19:37:37.308Z,11.18
2019-02-21T19:40:10.032Z,9.68
2019-02-21T19:42:38.244Z,14.15
2019-02-21T19:45:08.205Z,7.47
2019-02-21T19:47:36.500Z,11.78
2019-02-21T19:50:09.340Z,11.30
2019-02-21T19:52:37.548Z,8.23
2019-02-21T19:55:10.140Z,9.65
2019-02-21T19:57:38.377Z,12.70
2019-02-21T20:00:20.218Z,14.23
2019-02-21T20:02:48.420Z,9.20
2019-02-21T20:05:16.623Z,12.90
2019-02-21T20:07:45.001Z,11.25
2019-02-21T20:10:13.211Z,10.08
2019-02-21T20:12:41.434Z,15.85
2019-02-21T20:15:11.134Z,12.75
2019-02-21T20:17:39.372Z,10.50
2019-02-21T20:20:19.566Z,14.83
2019-02-21T20:22:47.771Z,12.00
2019-02-21T20:25:15.966Z,12.30
2019-02-21T20:27:44.158Z,14.70
2019-02-21T20:30:15.266Z,14.58
2019-02-21T20:32:43.457Z,15.43
2019-02-21T20:35:11.667Z,16.10
2019-02-21T20:37:40.003Z,14.60
2019-02-21T20:40:09.381Z,15.38
2019-02-21T20:42:37.586Z,13.75
2019-02-21T20:45:10.581Z,16.97
2019-02-21T20:47:38.918Z,11.88
2019-02-21T20:50:08.867Z,14.25
2019-02-21T20:52:37.063Z,18.05
2019-02-21T20:55:06.914Z,16.97
2019-02-21T20:57:35.129Z,20.43
2019-02-21T21:00:03.354Z,17.55
2019-02-21T21:02:31.545Z,15.95
2019-02-21T21:04:59.749Z,20.00
2019-02-21T21:07:27.957Z,18.23
2019-02-21T21:09:56.148Z,19.10
2019-02-21T21:12:24.341Z,20.12
2019-02-21T21:14:52.550Z,15.20
2019-02-21T21:17:20.773Z,16.73
2019-02-21T21:19:48.957Z,17.95
2019-02-21T21:22:17.143Z,16.75
2019-02-21T21:24:45.352Z,18.85
2019-02-21T21:27:13.549Z,15.60
2019-02-21T21:29:41.760Z,19.62
2019-02-21T21:32:09.955Z,17.65
2019-02-21T21:34:38.160Z,17.15
2019-02-21T21:37:06.372Z,21.48
2019-02-21T21:39:34.604Z,15.13
2019-02-21T21:42:02.810Z,16.07
2019-02-21T21:44:31.023Z,18.07
2019-02-21T21:46:59.216Z,14.83
2019-02-21T21:49:27.452Z,16.12
2019-02-21T21:51:55.649Z,18.27
2019-02-21T21:54:23.886Z,16.02
2019-02-21T21:56:52.108Z,12.20
2019-02-21T21:59:20.295Z,16.27
2019-02-21T22:01:48.505Z,14.33
2019-02-21T22:04:16.703Z,25.65
2019-02-21T22:06:44.909Z,21.95
2019-02-21T22:09:13.113Z,21.60
2019-02-21T22:11:41.317Z,22.35
2019-02-21T22:14:09.523Z,20.40
2019-02-21T22:16:37.736Z,17.60
2019-02-21T22:19:05.934Z,25.92
2019-02-21T22:21:34.135Z,13.65
2019-02-21T22:24:02.347Z,13.32
2019-02-21T22:26:30.571Z,20.20
2019-02-21T22:28:58.760Z,19.42
2019-02-21T22:31:26.987Z,19.90
2019-02-21T22:33:55.190Z,18.98
2019-02-21T22:36:23.397Z,21.23
2019-02-21T22:38:51.611Z,21.80
2019-02-21T22:41:19.817Z,20.50
2019-02-21T22:43:48.017Z,20.70
2019-02-21T22:46:16.227Z,23.95
2019-02-21T22:48:47.234Z,21.02
2019-02-21T22:51:14.357Z,18.92
2019-02-21T22:53:42.565Z,22.15
2019-02-21T22:56:10.771Z,23.05
2019-02-21T22:58:45.091Z,17.65
2019-02-21T23:01:24.431Z,18.25
2019-02-21T23:03:55.503Z,13.50
2019-02-21T23:06:42.128Z,23.07
2019-02-21T23:09:27.473Z,17.45
2019-02-21T23:11:50.962Z,15.03
2019-02-21T23:14:19.578Z,19.42
2019-02-21T23:16:47.969Z,24.75
2019-02-21T23:19:16.182Z,18.35
2019-02-21T23:21:44.394Z,15.15
2019-02-21T23:24:12.597Z,16.20
2019-02-21T23:26:40.801Z,16.55
2019-02-21T23:29:09.009Z,26.00
2019-02-21T23:31:37.221Z,19.23
2019-02-21T23:34:07.069Z,23.80
2019-02-21T23:36:35.279Z,16.48
2019-02-21T23:39:04.026Z,20.97
2019-02-21T23:41:32.229Z,23.12
2019-02-21T23:44:00.436Z,22.30
2019-02-21T23:46:28.649Z,20.82
2019-02-21T23:48:56.854Z,14.47
2019-02-21T23:51:25.053Z,16.82
2019-02-21T23:54:02.801Z,15.28
2019-02-21T23:56:23.188Z,19.60
2019-02-21T23:58:51.400Z,21.90
